Time;durP1;ratioP1;P1;durP2;ratioP2;P2;SDS_P1;SDS_P2;PMS_P1;PMS_P2;Temp;Humidity;BMP_temperature;BMP_pressure;BME280_temperature;BME280_humidity;BME280_pressure;Samples;Min_cycle;Max_cycle;Signal;HPM_P1;HPM_P2
2023/09/29 00:01:24;;;;;;;56.63;12.95;;;;;;;;;;6230364;23;20186;-93
2023/09/29 00:04:29;;;;;;;31.23;13.88;;;;;;;;;;6229498;23;20603;-92
2023/09/29 00:07:37;;;;;;;29.38;13.75;;;;;;;;;;6229437;23;20235;-94
2023/09/29 00:10:42;;;;;;;30.23;14.60;;;;;;;;;;6229962;23;20162;-94
2023/09/29 00:13:48;;;;;;;35.35;13.65;;;;;;;;;;6230333;23;20232;-93
2023/09/29 00:16:53;;;;;;;42.47;15.07;;;;;;;;;;6230473;23;20147;-92
2023/09/29 00:19:58;;;;;;;25.73;14.00;;;;;;;;;;6230152;23;20214;-93
2023/09/29 00:23:05;;;;;;;31.45;14.18;;;;;;;;;;6229656;23;20147;-93
2023/09/29 00:26:10;;;;;;;31.10;13.88;;;;;;;;;;6229835;23;20170;-92
2023/09/29 00:29:15;;;;;;;41.00;13.95;;;;;;;;;;6228638;23;20171;-94
2023/09/29 00:32:20;;;;;;;23.08;13.25;;;;;;;;;;6230011;23;20957;-92
2023/09/29 00:35:27;;;;;;;28.40;13.30;;;;;;;;;;6229937;23;20167;-92
2023/09/29 00:38:34;;;;;;;22.42;12.38;;;;;;;;;;6229230;23;20175;-93
2023/09/29 00:41:40;;;;;;;26.38;12.77;;;;;;;;;;6229540;23;20236;-92
2023/09/29 00:44:45;;;;;;;33.05;13.52;;;;;;;;;;6233264;23;20167;-93
2023/09/29 00:47:55;;;;;;;24.95;12.50;;;;;;;;;;6228544;23;20550;-94
2023/09/29 00:51:01;;;;;;;56.20;12.30;;;;;;;;;;6230893;23;20179;-93
2023/09/29 00:54:09;;;;;;;50.78;13.02;;;;;;;;;;6229194;23;20267;-92
2023/09/29 00:57:16;;;;;;;24.17;12.93;;;;;;;;;;6229915;23;20172;-91
2023/09/29 01:00:32;;;;;;;24.80;13.25;;;;;;;;;;6228007;23;20171;-94
2023/09/29 01:03:37;;;;;;;24.35;12.90;;;;;;;;;;6231514;23;20156;-92
2023/09/29 01:06:42;;;;;;;71.72;13.25;;;;;;;;;;6229695;23;20147;-92
2023/09/29 01:09:50;;;;;;;42.65;13.77;;;;;;;;;;6230197;23;20171;-93
2023/09/29 01:12:55;;;;;;;36.90;13.60;;;;;;;;;;6229997;23;20250;-93
2023/09/29 01:16:00;;;;;;;22.13;12.30;;;;;;;;;;6229822;23;20239;-93
2023/09/29 01:19:07;;;;;;;21.65;12.68;;;;;;;;;;6228392;23;20168;-93
2023/09/29 01:22:12;;;;;;;35.03;13.63;;;;;;;;;;6228791;23;20167;-92
2023/09/29 01:25:19;;;;;;;86.47;12.93;;;;;;;;;;6229723;23;20168;-94
2023/09/29 01:28:24;;;;;;;33.55;13.60;;;;;;;;;;6229871;23;20198;-92
2023/09/29 01:31:29;;;;;;;110.32;13.40;;;;;;;;;;6230214;23;20171;-92
2023/09/29 01:34:34;;;;;;;87.28;13.98;;;;;;;;;;6229236;23;20163;-91
2023/09/29 01:37:40;;;;;;;34.10;13.02;;;;;;;;;;6230825;23;20157;-92
2023/09/29 01:40:47;;;;;;;53.03;13.52;;;;;;;;;;6229917;23;20210;-91
2023/09/29 01:43:52;;;;;;;26.23;12.43;;;;;;;;;;6230882;23;20171;-92
2023/09/29 01:46:57;;;;;;;26.95;12.75;;;;;;;;;;6231296;23;20506;-92
2023/09/29 01:50:02;;;;;;;37.65;13.25;;;;;;;;;;6230313;23;20602;-92
2023/09/29 01:53:07;;;;;;;25.98;12.70;;;;;;;;;;6232111;23;20155;-93
2023/09/29 01:56:15;;;;;;;28.83;13.45;;;;;;;;;;6231547;23;20183;-93
2023/09/29 01:59:20;;;;;;;28.13;12.63;;;;;;;;;;6233547;23;20158;-92
2023/09/29 02:02:25;;;;;;;27.52;13.05;;;;;;;;;;6232092;23;20186;-93
2023/09/29 02:05:30;;;;;;;29.33;13.13;;;;;;;;;;6232081;23;20167;-93
2023/09/29 02:08:35;;;;;;;28.80;13.75;;;;;;;;;;6229870;23;20191;-91
2023/09/29 02:11:44;;;;;;;28.17;14.35;;;;;;;;;;6230346;23;20154;-93
2023/09/29 02:14:50;;;;;;;40.30;12.52;;;;;;;;;;6231326;23;20171;-93
2023/09/29 02:17:57;;;;;;;27.08;12.00;;;;;;;;;;6230784;23;20175;-93
2023/09/29 02:21:06;;;;;;;34.80;12.57;;;;;;;;;;6231233;23;20151;-92
2023/09/29 02:24:11;;;;;;;25.63;12.48;;;;;;;;;;6228118;23;20168;-92
2023/09/29 02:27:17;;;;;;;27.33;11.95;;;;;;;;;;6228173;23;20194;-92
2023/09/29 02:30:23;;;;;;;27.10;12.48;;;;;;;;;;6229795;23;20167;-92
2023/09/29 02:33:30;;;;;;;27.10;11.30;;;;;;;;;;6231218;23;20166;-93
2023/09/29 02:36:36;;;;;;;25.27;11.20;;;;;;;;;;6231788;23;20151;-92
2023/09/29 02:39:42;;;;;;;45.95;11.38;;;;;;;;;;6230881;23;20222;-89
2023/09/29 02:42:49;;;;;;;38.70;11.73;;;;;;;;;;6232162;23;20619;-94
2023/09/29 02:45:56;;;;;;;68.50;12.65;;;;;;;;;;6230340;23;20199;-93
2023/09/29 02:49:04;;;;;;;34.88;11.77;;;;;;;;;;6230945;23;20199;-94
2023/09/29 02:52:10;;;;;;;30.80;11.43;;;;;;;;;;6236057;22;20549;-93
2023/09/29 02:55:16;;;;;;;38.22;11.55;;;;;;;;;;6260080;22;20170;-93
2023/09/29 02:58:22;;;;;;;22.52;10.98;;;;;;;;;;6243869;22;20190;-91
2023/09/29 03:01:28;;;;;;;25.02;10.07;;;;;;;;;;6243450;22;20166;-93
2023/09/29 03:04:34;;;;;;;22.38;9.60;;;;;;;;;;6259375;22;20171;-93
2023/09/29 03:07:39;;;;;;;18.80;10.75;;;;;;;;;;6244138;22;20174;-93
2023/09/29 03:10:44;;;;;;;38.08;11.50;;;;;;;;;;6260513;22;20209;-92
2023/09/29 03:13:50;;;;;;;22.10;11.50;;;;;;;;;;6262097;22;20166;-91
2023/09/29 03:16:57;;;;;;;27.98;11.25;;;;;;;;;;6260893;22;20155;-92
2023/09/29 03:20:10;;;;;;;42.42;11.25;;;;;;;;;;6245004;22;20186;-93
2023/09/29 03:23:15;;;;;;;190.55;14.05;;;;;;;;;;6242853;23;20167;-93
2023/09/29 03:26:22;;;;;;;39.92;10.55;;;;;;;;;;6259789;22;20174;-93
2023/09/29 03:29:29;;;;;;;24.20;11.07;;;;;;;;;;6260591;22;20300;-92
2023/09/29 03:32:35;;;;;;;21.08;10.80;;;;;;;;;;6260876;22;20177;-92
2023/09/29 03:35:42;;;;;;;17.42;10.07;;;;;;;;;;6260521;22;20170;-94
2023/09/29 03:38:47;;;;;;;20.75;10.30;;;;;;;;;;6242896;23;20166;-94
2023/09/29 03:41:52;;;;;;;16.13;10.27;;;;;;;;;;6258980;22;20182;-93
2023/09/29 03:45:00;;;;;;;22.00;10.48;;;;;;;;;;6260158;22;20197;-92
2023/09/29 03:48:07;;;;;;;26.20;9.43;;;;;;;;;;6259276;22;20193;-94
2023/09/29 03:51:13;;;;;;;17.00;10.00;;;;;;;;;;6242659;22;20509;-93
2023/09/29 03:54:18;;;;;;;25.63;10.43;;;;;;;;;;6261093;22;20189;-94
2023/09/29 03:57:24;;;;;;;17.23;9.50;;;;;;;;;;6245318;22;20227;-94
2023/09/29 04:00:31;;;;;;;19.10;10.52;;;;;;;;;;6244328;22;20166;-91
2023/09/29 04:03:36;;;;;;;28.50;10.68;;;;;;;;;;6245140;22;20171;-90
2023/09/29 04:06:43;;;;;;;21.75;9.48;;;;;;;;;;6262994;22;20154;-92
2023/09/29 04:09:48;;;;;;;20.20;10.57;;;;;;;;;;6243285;22;20171;-92
2023/09/29 04:12:53;;;;;;;19.20;9.35;;;;;;;;;;6262344;22;20209;-93
2023/09/29 04:16:04;;;;;;;15.02;9.25;;;;;;;;;;6249216;22;20154;-94
2023/09/29 04:19:11;;;;;;;21.25;8.88;;;;;;;;;;6244766;22;20235;-93
2023/09/29 04:22:17;;;;;;;17.48;9.10;;;;;;;;;;6247138;22;20235;-93
2023/09/29 04:25:30;;;;;;;17.73;9.32;;;;;;;;;;6246952;22;20170;-91
2023/09/29 04:28:39;;;;;;;14.73;8.85;;;;;;;;;;6243558;22;20249;-94
2023/09/29 04:31:46;;;;;;;14.00;8.23;;;;;;;;;;6243954;22;20171;-92
2023/09/29 04:34:51;;;;;;;15.50;8.77;;;;;;;;;;6244438;22;20236;-94
2023/09/29 04:37:56;;;;;;;16.17;9.13;;;;;;;;;;6242653;23;20162;-93
2023/09/29 04:41:04;;;;;;;21.13;10.27;;;;;;;;;;6246160;22;20170;-94
2023/09/29 04:44:09;;;;;;;23.45;10.07;;;;;;;;;;6247255;22;20293;-94
2023/09/29 04:47:17;;;;;;;25.13;10.25;;;;;;;;;;6247017;22;20213;-93
2023/09/29 04:50:23;;;;;;;20.13;10.07;;;;;;;;;;6248584;22;20174;-94
2023/09/29 04:53:29;;;;;;;21.95;10.32;;;;;;;;;;6247235;22;20174;-95
2023/09/29 04:56:35;;;;;;;35.40;9.55;;;;;;;;;;6247964;22;20151;-94
2023/09/29 04:59:41;;;;;;;20.58;9.68;;;;;;;;;;6247582;22;20167;-94
2023/09/29 05:02:48;;;;;;;17.17;9.80;;;;;;;;;;6249529;22;20226;-95
2023/09/29 05:05:54;;;;;;;32.55;9.98;;;;;;;;;;6250206;22;20227;-94
2023/09/29 05:12:20;;;;;;;23.90;8.52;;;;;;;;;;6246973;22;20217;-93
2023/09/29 05:15:36;;;;;;;18.05;10.32;;;;;;;;;;6247058;23;20166;-90
2023/09/29 05:18:44;;;;;;;24.38;9.40;;;;;;;;;;6247303;22;20170;-89
2023/09/29 05:21:50;;;;;;;19.50;9.20;;;;;;;;;;6245589;23;20158;-91
2023/09/29 05:24:56;;;;;;;18.27;9.63;;;;;;;;;;6250777;23;20225;-90
2023/09/29 05:28:03;;;;;;;15.70;8.85;;;;;;;;;;6248674;23;20630;-90
2023/09/29 05:31:10;;;;;;;14.40;9.15;;;;;;;;;;6250543;23;20158;-91
2023/09/29 05:34:28;;;;;;;16.42;8.85;;;;;;;;;;6249938;23;20190;-94
2023/09/29 05:40:53;;;;;;;14.52;8.43;;;;;;;;;;6248500;22;20183;-93
2023/09/29 05:44:00;;;;;;;11.00;7.72;;;;;;;;;;6249348;22;20210;-92
2023/09/29 05:47:06;;;;;;;15.15;7.93;;;;;;;;;;6247791;22;20213;-89
2023/09/29 05:50:13;;;;;;;12.40;8.15;;;;;;;;;;6247708;22;20194;-89
2023/09/29 05:53:19;;;;;;;12.68;7.63;;;;;;;;;;6247628;22;20181;-93
2023/09/29 05:56:26;;;;;;;13.73;7.53;;;;;;;;;;6248249;22;20170;-93
2023/09/29 05:59:32;;;;;;;42.33;7.90;;;;;;;;;;6248509;22;20170;-91
2023/09/29 06:02:37;;;;;;;24.02;8.23;;;;;;;;;;6246766;22;20170;-92
2023/09/29 06:05:45;;;;;;;20.70;8.40;;;;;;;;;;6247257;22;20162;-90
2023/09/29 06:08:51;;;;;;;22.17;8.57;;;;;;;;;;6245455;22;20194;-93
2023/09/29 06:11:56;;;;;;;15.35;7.82;;;;;;;;;;6246295;22;20170;-91
2023/09/29 06:15:02;;;;;;;14.55;7.88;;;;;;;;;;6249138;22;20166;-93
2023/09/29 06:18:08;;;;;;;11.30;7.82;;;;;;;;;;6243667;23;20491;-94
2023/09/29 06:21:16;;;;;;;14.73;8.10;;;;;;;;;;6244841;22;20171;-92
2023/09/29 06:24:21;;;;;;;13.90;7.95;;;;;;;;;;6245681;22;20235;-91
2023/09/29 06:27:28;;;;;;;15.70;8.50;;;;;;;;;;6245795;22;20173;-91
2023/09/29 06:30:36;;;;;;;14.68;7.45;;;;;;;;;;6248316;23;20171;-91
2023/09/29 06:33:42;;;;;;;12.88;7.43;;;;;;;;;;6245717;22;20166;-90
2023/09/29 06:36:50;;;;;;;12.15;7.18;;;;;;;;;;6248083;22;20182;-92
2023/09/29 06:40:00;;;;;;;11.63;7.82;;;;;;;;;;6270323;22;20170;-90
2023/09/29 06:43:06;;;;;;;9.30;6.57;;;;;;;;;;6241365;22;20170;-92
2023/09/29 06:46:12;;;;;;;22.75;7.78;;;;;;;;;;6238451;23;20276;-90
2023/09/29 06:49:17;;;;;;;10.65;6.82;;;;;;;;;;6239099;22;20198;-90
2023/09/29 06:52:24;;;;;;;9.45;6.30;;;;;;;;;;6238342;23;20181;-90
2023/09/29 06:55:29;;;;;;;8.23;5.75;;;;;;;;;;6239273;23;20214;-87
2023/09/29 06:58:34;;;;;;;9.07;6.40;;;;;;;;;;6239328;22;20166;-91
2023/09/29 07:01:39;;;;;;;12.73;6.35;;;;;;;;;;6240151;22;20166;-89
2023/09/29 07:04:44;;;;;;;12.63;7.28;;;;;;;;;;6241501;23;20166;-89
2023/09/29 07:07:51;;;;;;;13.00;6.75;;;;;;;;;;6239011;23;20170;-91
2023/09/29 07:10:58;;;;;;;16.13;7.82;;;;;;;;;;6240425;23;20166;-88
2023/09/29 07:14:04;;;;;;;22.02;8.15;;;;;;;;;;6238452;23;20170;-88
2023/09/29 07:17:09;;;;;;;15.10;7.75;;;;;;;;;;6240110;23;20174;-93
2023/09/29 07:20:14;;;;;;;14.25;8.48;;;;;;;;;;6239669;23;20166;-89
2023/09/29 07:23:22;;;;;;;16.83;8.30;;;;;;;;;;6238843;23;20174;-88
2023/09/29 07:26:28;;;;;;;15.35;8.63;;;;;;;;;;6239665;23;20171;-90
2023/09/29 07:29:33;;;;;;;14.35;7.88;;;;;;;;;;6237520;23;20190;-90
2023/09/29 07:32:39;;;;;;;13.38;8.85;;;;;;;;;;6241727;23;20247;-91
2023/09/29 07:35:47;;;;;;;13.40;8.95;;;;;;;;;;6241703;22;20272;-88
2023/09/29 07:38:53;;;;;;;16.70;8.50;;;;;;;;;;6241039;23;20170;-86
2023/09/29 07:41:58;;;;;;;16.85;8.60;;;;;;;;;;6241164;23;20702;-89
2023/09/29 07:45:04;;;;;;;18.48;9.43;;;;;;;;;;6239627;23;20170;-89
2023/09/29 07:48:09;;;;;;;18.08;8.63;;;;;;;;;;6236560;23;20644;-90
2023/09/29 07:51:14;;;;;;;15.60;8.32;;;;;;;;;;6238512;23;20175;-87
2023/09/29 07:54:20;;;;;;;18.55;8.82;;;;;;;;;;6237350;22;20602;-90
2023/09/29 07:57:26;;;;;;;14.93;8.05;;;;;;;;;;6241502;23;20293;-90
2023/09/29 08:00:31;;;;;;;16.13;8.95;;;;;;;;;;6239407;22;20238;-88
2023/09/29 08:03:41;;;;;;;14.40;8.70;;;;;;;;;;6237829;23;20241;-89
2023/09/29 08:06:46;;;;;;;15.13;9.23;;;;;;;;;;6238802;23;20186;-88
2023/09/29 08:09:53;;;;;;;14.50;9.07;;;;;;;;;;6239636;22;20198;-89
2023/09/29 08:12:58;;;;;;;14.13;8.85;;;;;;;;;;6257770;23;20158;-88
2023/09/29 08:16:04;;;;;;;14.60;9.13;;;;;;;;;;6240026;23;20548;-88
2023/09/29 08:19:08;;;;;;;15.95;9.23;;;;;;;;;;6237454;22;20677;-90
2023/09/29 08:22:13;;;;;;;18.17;10.05;;;;;;;;;;6238889;23;20175;-89
2023/09/29 08:25:20;;;;;;;16.02;8.77;;;;;;;;;;6255364;22;20170;-89
2023/09/29 08:28:25;;;;;;;16.08;9.48;;;;;;;;;;6238697;23;20194;-90
2023/09/29 08:31:30;;;;;;;18.33;9.35;;;;;;;;;;6234405;23;20154;-90
2023/09/29 08:34:36;;;;;;;15.82;9.20;;;;;;;;;;6237096;23;20166;-88
2023/09/29 08:37:41;;;;;;;19.45;10.10;;;;;;;;;;6239760;23;20166;-90
2023/09/29 08:40:48;;;;;;;15.77;9.27;;;;;;;;;;6253777;22;20243;-91
2023/09/29 08:43:54;;;;;;;14.25;9.35;;;;;;;;;;6238522;22;20181;-87
2023/09/29 08:47:01;;;;;;;14.73;9.55;;;;;;;;;;6238729;23;20205;-91
2023/09/29 08:50:08;;;;;;;15.38;9.90;;;;;;;;;;6240396;23;20194;-88
2023/09/29 08:53:14;;;;;;;15.40;9.68;;;;;;;;;;6236022;23;20221;-89
2023/09/29 08:56:21;;;;;;;15.32;9.50;;;;;;;;;;6238530;23;20182;-88
2023/09/29 08:59:28;;;;;;;14.75;8.75;;;;;;;;;;6238618;23;20243;-89
2023/09/29 09:02:33;;;;;;;14.60;9.65;;;;;;;;;;6239462;23;20182;-89
2023/09/29 09:05:38;;;;;;;17.15;10.27;;;;;;;;;;6239720;23;20182;-91
2023/09/29 09:08:43;;;;;;;18.25;9.95;;;;;;;;;;6256745;23;20171;-90
2023/09/29 09:11:49;;;;;;;19.38;9.65;;;;;;;;;;6238590;23;20181;-89
2023/09/29 09:44:20;;;;;;;20.67;13.45;;;;;;;;;;6256739;22;20222;-90
2023/09/29 09:47:26;;;;;;;19.70;12.38;;;;;;;;;;6259036;23;20257;-90
2023/09/29 09:50:36;;;;;;;21.70;11.73;;;;;;;;;;6257400;22;20194;-89
2023/09/29 09:53:41;;;;;;;17.98;11.75;;;;;;;;;;6241630;22;20172;-88
2023/09/29 09:56:50;;;;;;;19.38;10.68;;;;;;;;;;6258140;22;20183;-87
2023/09/29 09:59:57;;;;;;;13.30;8.50;;;;;;;;;;6256419;23;20170;-91
2023/09/29 10:03:04;;;;;;;13.30;8.50;;;;;;;;;;6241889;22;20178;-89
2023/09/29 10:06:12;;;;;;;15.07;7.95;;;;;;;;;;6260473;22;20214;-90
2023/09/29 10:09:17;;;;;;;11.75;7.30;;;;;;;;;;6247221;22;20194;-90
2023/09/29 10:12:27;;;;;;;14.15;7.90;;;;;;;;;;6245968;22;20167;-88
2023/09/29 10:15:35;;;;;;;12.50;6.63;;;;;;;;;;6243265;22;20171;-89
2023/09/29 10:18:40;;;;;;;8.57;4.80;;;;;;;;;;6243525;22;20298;-88
2023/09/29 10:21:46;;;;;;;9.20;5.10;;;;;;;;;;6244476;22;20242;-92
2023/09/29 10:25:06;;;;;;;11.05;4.70;;;;;;;;;;6241735;23;20630;-91
2023/09/29 10:28:12;;;;;;;6.38;4.13;;;;;;;;;;6246680;23;20174;-90
2023/09/29 10:31:19;;;;;;;6.90;4.35;;;;;;;;;;6240628;22;20225;-91
2023/09/29 10:37:45;;;;;;;8.68;4.10;;;;;;;;;;6242317;23;20185;-92
2023/09/29 10:40:52;;;;;;;8.68;4.57;;;;;;;;;;6241817;23;20246;-90
2023/09/29 10:43:59;;;;;;;8.38;4.35;;;;;;;;;;6239429;23;20200;-92
2023/09/29 10:47:07;;;;;;;6.40;4.53;;;;;;;;;;6240119;23;20289;-90
2023/09/29 10:50:12;;;;;;;9.20;5.22;;;;;;;;;;6242823;22;20245;-92
2023/09/29 10:53:21;;;;;;;8.00;3.90;;;;;;;;;;6243054;22;20177;-92
2023/09/29 10:56:27;;;;;;;10.57;4.80;;;;;;;;;;6241406;22;20613;-92
2023/09/29 10:59:34;;;;;;;8.43;4.18;;;;;;;;;;6241009;22;20267;-91
2023/09/29 11:02:42;;;;;;;6.93;3.80;;;;;;;;;;6240765;22;20169;-93
2023/09/29 11:05:50;;;;;;;6.15;3.30;;;;;;;;;;6241389;23;20173;-95
2023/09/29 11:08:57;;;;;;;7.55;3.88;;;;;;;;;;6241773;23;20174;-92
2023/09/29 11:12:02;;;;;;;8.43;3.40;;;;;;;;;;6240055;23;20170;-91
2023/09/29 11:15:08;;;;;;;5.80;3.42;;;;;;;;;;6241757;23;20253;-93
2023/09/29 11:18:26;;;;;;;5.13;3.70;;;;;;;;;;6241097;22;20489;-94
2023/09/29 11:21:35;;;;;;;7.40;3.58;;;;;;;;;;6239984;22;20284;-93
2023/09/29 11:24:40;;;;;;;6.47;3.33;;;;;;;;;;6241342;22;20197;-93
2023/09/29 11:27:57;;;;;;;5.38;3.60;;;;;;;;;;6243723;22;20202;-89
2023/09/29 11:31:02;;;;;;;4.18;3.08;;;;;;;;;;6244311;23;20644;-91
2023/09/29 11:34:09;;;;;;;6.28;3.42;;;;;;;;;;6241451;22;20182;-90
2023/09/29 11:37:15;;;;;;;7.28;3.22;;;;;;;;;;6244484;23;20213;-92
2023/09/29 11:40:20;;;;;;;7.40;3.70;;;;;;;;;;6245286;23;20170;-89
2023/09/29 11:43:26;;;;;;;6.85;3.47;;;;;;;;;;6248417;22;20253;-89
2023/09/29 11:46:31;;;;;;;5.80;3.22;;;;;;;;;;6241505;23;20213;-90
2023/09/29 11:49:39;;;;;;;5.53;3.47;;;;;;;;;;6242470;23;20232;-91
2023/09/29 11:52:44;;;;;;;8.82;3.95;;;;;;;;;;6241377;23;20166;-93
2023/09/29 11:55:51;;;;;;;7.88;4.03;;;;;;;;;;6242105;23;20174;-90
2023/09/29 11:58:59;;;;;;;6.95;3.70;;;;;;;;;;6243634;22;20154;-90
2023/09/29 12:02:04;;;;;;;13.75;4.10;;;;;;;;;;6241296;22;20190;-92
2023/09/29 12:05:11;;;;;;;6.45;3.97;;;;;;;;;;6242720;23;20163;-89
2023/09/29 12:08:19;;;;;;;9.40;4.30;;;;;;;;;;6243925;22;20216;-91
2023/09/29 12:11:25;;;;;;;7.28;3.92;;;;;;;;;;6240743;23;20286;-93
2023/09/29 12:14:30;;;;;;;7.65;4.80;;;;;;;;;;6242455;23;20437;-90
2023/09/29 12:17:35;;;;;;;10.52;4.40;;;;;;;;;;6242506;23;20274;-92
2023/09/29 12:20:43;;;;;;;10.02;4.50;;;;;;;;;;6239344;23;20177;-91
2023/09/29 12:23:47;;;;;;;8.93;3.75;;;;;;;;;;6241547;23;20169;-91
2023/09/29 12:26:53;;;;;;;8.77;4.10;;;;;;;;;;6243692;23;20213;-90
2023/09/29 12:29:58;;;;;;;7.50;3.72;;;;;;;;;;6238858;23;20198;-91
2023/09/29 12:33:03;;;;;;;7.68;4.90;;;;;;;;;;6240403;23;20170;-91
2023/09/29 12:36:10;;;;;;;8.07;3.72;;;;;;;;;;6240438;23;20159;-91
2023/09/29 12:39:16;;;;;;;10.38;4.40;;;;;;;;;;6246073;22;20170;-94
2023/09/29 12:42:21;;;;;;;8.93;4.53;;;;;;;;;;6245598;23;20210;-90
2023/09/29 12:45:26;;;;;;;10.85;4.25;;;;;;;;;;6245899;22;20171;-92
2023/09/29 12:48:31;;;;;;;7.85;3.63;;;;;;;;;;6243536;23;20166;-92
2023/09/29 12:51:39;;;;;;;8.60;4.55;;;;;;;;;;6237780;23;20685;-89
2023/09/29 12:54:45;;;;;;;15.82;3.65;;;;;;;;;;6240589;23;20171;-91
2023/09/29 12:57:52;;;;;;;11.45;4.30;;;;;;;;;;6239737;23;20194;-92
2023/09/29 13:00:57;;;;;;;6.53;3.58;;;;;;;;;;6239579;23;20353;-90
2023/09/29 13:04:02;;;;;;;8.52;3.75;;;;;;;;;;6242695;22;20633;-90
2023/09/29 13:07:08;;;;;;;7.07;3.78;;;;;;;;;;6241422;23;20240;-93
2023/09/29 13:10:14;;;;;;;8.15;4.00;;;;;;;;;;6241479;22;20252;-91
2023/09/29 13:13:19;;;;;;;8.60;3.72;;;;;;;;;;6240474;23;20175;-93
2023/09/29 13:16:24;;;;;;;6.57;3.97;;;;;;;;;;6240211;23;20173;-92
2023/09/29 13:19:30;;;;;;;6.43;3.55;;;;;;;;;;6238271;22;20601;-90
2023/09/29 13:22:38;;;;;;;5.90;3.80;;;;;;;;;;6241901;22;20169;-90
2023/09/29 13:25:44;;;;;;;11.75;3.88;;;;;;;;;;6242152;23;20174;-90
2023/09/29 13:28:50;;;;;;;7.75;3.55;;;;;;;;;;6240601;23;20179;-92
2023/09/29 13:31:55;;;;;;;5.68;3.33;;;;;;;;;;6242075;23;20194;-91
2023/09/29 13:35:01;;;;;;;8.32;3.47;;;;;;;;;;6244017;23;20181;-90
2023/09/29 13:38:09;;;;;;;7.85;3.38;;;;;;;;;;6243546;23;20178;-92
2023/09/29 13:41:21;;;;;;;9.98;3.80;;;;;;;;;;6241924;23;20185;-92
2023/09/29 13:44:26;;;;;;;8.57;3.70;;;;;;;;;;6242498;23;20208;-92
2023/09/29 13:47:31;;;;;;;5.80;3.25;;;;;;;;;;6243400;23;20189;-93
2023/09/29 13:50:37;;;;;;;6.50;3.42;;;;;;;;;;6240406;23;20244;-93
2023/09/29 13:53:45;;;;;;;5.35;3.10;;;;;;;;;;6240541;23;20236;-91
2023/09/29 13:56:50;;;;;;;5.93;3.63;;;;;;;;;;6239157;23;20178;-90
2023/09/29 13:59:56;;;;;;;7.43;3.70;;;;;;;;;;6238281;23;20170;-94
2023/09/29 14:03:01;;;;;;;6.60;3.75;;;;;;;;;;6239458;23;20178;-89
2023/09/29 14:06:07;;;;;;;6.25;3.35;;;;;;;;;;6238690;22;20531;-92
2023/09/29 14:09:14;;;;;;;5.55;3.10;;;;;;;;;;6240985;23;20174;-90
2023/09/29 14:12:19;;;;;;;9.30;3.42;;;;;;;;;;6238437;23;20242;-88
2023/09/29 14:15:29;;;;;;;5.53;3.58;;;;;;;;;;6240479;22;20169;-92
2023/09/29 14:18:34;;;;;;;5.35;3.60;;;;;;;;;;6239620;23;20166;-91
2023/09/29 14:21:40;;;;;;;7.32;3.47;;;;;;;;;;6241946;23;20174;-93
2023/09/29 14:24:47;;;;;;;9.18;4.18;;;;;;;;;;6241653;23;20276;-90
2023/09/29 14:27:53;;;;;;;7.22;3.50;;;;;;;;;;6237630;23;20285;-88
2023/09/29 14:30:58;;;;;;;6.30;3.20;;;;;;;;;;6240394;23;20256;-88
2023/09/29 14:34:14;;;;;;;7.85;3.35;;;;;;;;;;6224454;23;20798;-89
2023/09/29 14:37:19;;;;;;;6.53;3.13;;;;;;;;;;6243872;23;20173;-92
2023/09/29 14:40:30;;;;;;;14.18;3.88;;;;;;;;;;6238781;23;20165;-89
2023/09/29 14:43:36;;;;;;;8.35;4.55;;;;;;;;;;6239553;23;20188;-92
2023/09/29 14:46:42;;;;;;;8.32;3.42;;;;;;;;;;6238158;23;20485;-91
2023/09/29 14:49:57;;;;;;;8.90;3.95;;;;;;;;;;6241341;23;20181;-89
2023/09/29 14:53:02;;;;;;;10.15;3.88;;;;;;;;;;6236541;23;20178;-89
2023/09/29 14:56:09;;;;;;;8.30;3.58;;;;;;;;;;6240015;23;20224;-90
2023/09/29 14:59:18;;;;;;;5.80;3.50;;;;;;;;;;6241208;23;20167;-90
2023/09/29 15:02:23;;;;;;;7.07;3.78;;;;;;;;;;6240678;23;20182;-90
2023/09/29 15:05:29;;;;;;;9.15;3.40;;;;;;;;;;6244085;23;20169;-90
2023/09/29 15:08:35;;;;;;;10.75;3.42;;;;;;;;;;6239300;23;20689;-90
2023/09/29 15:11:42;;;;;;;10.40;3.33;;;;;;;;;;6242924;22;20178;-89
2023/09/29 15:14:47;;;;;;;9.68;3.20;;;;;;;;;;6241392;23;20166;-90
2023/09/29 15:17:52;;;;;;;8.43;3.70;;;;;;;;;;6239483;23;20174;-90
2023/09/29 15:20:57;;;;;;;7.55;3.72;;;;;;;;;;6239882;23;20504;-90
2023/09/29 15:24:03;;;;;;;8.50;3.72;;;;;;;;;;6239183;23;20214;-90
2023/09/29 15:27:10;;;;;;;10.10;5.25;;;;;;;;;;6240982;23;20165;-91
2023/09/29 15:30:15;;;;;;;29.52;14.95;;;;;;;;;;6240376;23;20230;-91
2023/09/29 15:33:20;;;;;;;8.73;3.70;;;;;;;;;;6259078;23;20245;-90
2023/09/29 15:36:32;;;;;;;16.70;4.28;;;;;;;;;;6242004;23;20240;-90
2023/09/29 15:39:37;;;;;;;9.27;5.05;;;;;;;;;;6241822;23;20170;-89
2023/09/29 15:42:44;;;;;;;8.75;4.07;;;;;;;;;;6240824;23;20245;-91
2023/09/29 15:45:51;;;;;;;15.20;7.35;;;;;;;;;;6239154;23;20736;-92
2023/09/29 15:48:56;;;;;;;13.13;5.57;;;;;;;;;;6241051;23;20170;-90
2023/09/29 15:52:06;;;;;;;12.57;6.30;;;;;;;;;;6241812;23;20202;-90
2023/09/29 15:55:12;;;;;;;13.25;5.68;;;;;;;;;;6238975;23;20175;-90
2023/09/29 15:58:18;;;;;;;16.15;6.90;;;;;;;;;;6239475;23;20167;-91
2023/09/29 16:01:24;;;;;;;10.55;5.40;;;;;;;;;;6237358;23;20166;-91
2023/09/29 16:04:29;;;;;;;11.23;5.97;;;;;;;;;;6240423;23;20169;-90
2023/09/29 16:07:34;;;;;;;7.78;4.53;;;;;;;;;;6240543;23;20174;-89
2023/09/29 16:10:39;;;;;;;17.30;5.85;;;;;;;;;;6239910;23;20173;-92
2023/09/29 16:13:50;;;;;;;37.67;18.33;;;;;;;;;;6241086;22;20253;-88
2023/09/29 16:16:55;;;;;;;19.17;9.65;;;;;;;;;;6242722;22;20171;-91
2023/09/29 16:20:01;;;;;;;9.52;5.03;;;;;;;;;;6242827;23;20163;-91
2023/09/29 16:23:10;;;;;;;22.98;12.00;;;;;;;;;;6239071;23;20231;-90
2023/09/29 16:26:16;;;;;;;23.08;11.07;;;;;;;;;;6243304;22;20708;-90
2023/09/29 16:29:27;;;;;;;11.90;5.10;;;;;;;;;;6241910;22;20226;-90
2023/09/29 16:32:34;;;;;;;18.20;6.28;;;;;;;;;;6244600;22;20198;-93
2023/09/29 16:35:39;;;;;;;14.88;5.78;;;;;;;;;;6245004;22;20203;-91
2023/09/29 16:38:44;;;;;;;9.00;4.70;;;;;;;;;;6247658;22;20233;-93
2023/09/29 16:41:51;;;;;;;10.20;4.32;;;;;;;;;;6244228;22;20194;-91
2023/09/29 16:44:58;;;;;;;15.55;4.95;;;;;;;;;;6246309;22;20205;-91
2023/09/29 16:48:03;;;;;;;14.32;6.07;;;;;;;;;;6246525;22;20165;-91
2023/09/29 16:51:12;;;;;;;11.75;5.18;;;;;;;;;;6244625;22;20194;-91
2023/09/29 16:54:19;;;;;;;17.25;7.43;;;;;;;;;;6243057;23;20178;-92
2023/09/29 16:57:24;;;;;;;12.57;5.15;;;;;;;;;;6245232;22;20195;-93
2023/09/29 17:00:32;;;;;;;11.50;4.97;;;;;;;;;;6245189;22;20167;-90
2023/09/29 17:03:41;;;;;;;15.23;7.07;;;;;;;;;;6244402;22;20693;-90
2023/09/29 17:06:47;;;;;;;19.55;7.82;;;;;;;;;;6245263;22;20163;-92
2023/09/29 17:09:52;;;;;;;9.57;5.85;;;;;;;;;;6248142;22;20190;-91
2023/09/29 17:12:58;;;;;;;16.35;7.75;;;;;;;;;;6243716;22;20194;-91
2023/09/29 17:16:05;;;;;;;10.43;5.90;;;;;;;;;;6240054;23;20163;-91
2023/09/29 17:19:10;;;;;;;10.35;5.00;;;;;;;;;;6244757;23;20146;-92
2023/09/29 17:22:15;;;;;;;13.27;5.55;;;;;;;;;;6242155;22;20166;-92
2023/09/29 17:25:21;;;;;;;9.85;5.43;;;;;;;;;;6242267;22;20164;-90
2023/09/29 17:28:27;;;;;;;11.43;6.20;;;;;;;;;;6241308;23;20169;-93
2023/09/29 17:31:33;;;;;;;10.05;5.80;;;;;;;;;;6241262;22;20190;-92
2023/09/29 17:34:38;;;;;;;16.65;8.35;;;;;;;;;;6243184;22;20166;-91
2023/09/29 17:37:43;;;;;;;17.02;8.00;;;;;;;;;;6239690;22;20290;-94
2023/09/29 17:40:49;;;;;;;15.63;7.28;;;;;;;;;;6243426;22;20162;-92
2023/09/29 17:43:54;;;;;;;16.50;7.00;;;;;;;;;;6243818;23;20522;-91
2023/09/29 17:47:01;;;;;;;10.60;6.65;;;;;;;;;;6244440;23;20225;-94
2023/09/29 17:50:07;;;;;;;13.88;6.95;;;;;;;;;;6244409;22;20166;-91
2023/09/29 17:53:13;;;;;;;13.95;6.10;;;;;;;;;;6244665;22;20193;-90
2023/09/29 17:56:18;;;;;;;12.55;6.63;;;;;;;;;;6246765;22;20167;-91
2023/09/29 17:59:23;;;;;;;15.18;8.40;;;;;;;;;;6246671;22;20171;-91
2023/09/29 18:02:30;;;;;;;23.77;14.48;;;;;;;;;;6243677;22;20285;-91
2023/09/29 18:05:36;;;;;;;11.32;5.70;;;;;;;;;;6243742;22;20183;-92
2023/09/29 18:08:41;;;;;;;10.88;6.32;;;;;;;;;;6243188;23;20169;-90
2023/09/29 18:11:46;;;;;;;17.67;6.75;;;;;;;;;;6244018;23;20194;-91
2023/09/29 18:14:51;;;;;;;12.88;6.10;;;;;;;;;;6242306;22;20161;-90
2023/09/29 18:18:02;;;;;;;11.80;6.10;;;;;;;;;;6244004;22;20189;-90
2023/09/29 18:21:07;;;;;;;14.65;6.90;;;;;;;;;;6241407;22;20167;-90
2023/09/29 18:24:17;;;;;;;12.48;6.72;;;;;;;;;;6243527;23;20166;-89
2023/09/29 18:27:22;;;;;;;17.15;8.02;;;;;;;;;;6245766;22;20167;-92
2023/09/29 18:30:28;;;;;;;13.80;6.32;;;;;;;;;;6243181;22;20165;-91
2023/09/29 18:33:35;;;;;;;15.05;7.13;;;;;;;;;;6247179;22;20268;-91
2023/09/29 18:36:41;;;;;;;13.35;6.70;;;;;;;;;;6247242;22;20167;-91
2023/09/29 18:39:54;;;;;;;14.63;6.43;;;;;;;;;;6253855;22;20203;-92
2023/09/29 18:43:00;;;;;;;12.32;6.10;;;;;;;;;;6269200;22;20190;-92
2023/09/29 18:46:05;;;;;;;12.50;7.13;;;;;;;;;;6245402;22;20194;-92
2023/09/29 18:49:12;;;;;;;14.73;6.65;;;;;;;;;;6245967;22;20166;-93
2023/09/29 18:52:17;;;;;;;20.52;6.88;;;;;;;;;;6245530;22;20249;-92
2023/09/29 18:55:23;;;;;;;12.20;6.43;;;;;;;;;;6244323;23;20163;-91
2023/09/29 18:58:28;;;;;;;13.18;6.75;;;;;;;;;;6243914;23;20162;-91
2023/09/29 19:01:37;;;;;;;13.00;7.57;;;;;;;;;;6244623;22;20166;-91